createdAt,value
2022-12-29T00:00:45.130Z,97408.41
2022-12-29T00:03:14.568Z,97411.03
2022-12-29T00:05:44.331Z,97403.19
2022-12-29T00:08:17.126Z,97406.78
2022-12-29T00:10:46.171Z,97399.78
2022-12-29T00:13:33.804Z,97392.75
2022-12-29T00:16:04.844Z,97403.19
2022-12-29T00:18:34.819Z,97401.19
2022-12-29T00:21:21.912Z,97394.97
2022-12-29T00:24:10.310Z,97407.22
2022-12-29T00:26:57.669Z,97396.38
2022-12-29T00:29:44.691Z,97399.00
2022-12-29T00:32:30.940Z,97405.81
2022-12-29T00:35:12.586Z,97398.81
2022-12-29T00:38:02.305Z,97396.81
2022-12-29T00:40:51.489Z,97398.41
2022-12-29T00:43:38.986Z,97391.75
2022-12-29T00:46:08.143Z,97387.16
2022-12-29T00:49:00.217Z,97384.00
2022-12-29T00:51:29.343Z,97387.19
2022-12-29T00:53:58.319Z,97381.16
2022-12-29T00:56:29.843Z,97378.38
2022-12-29T00:59:03.373Z,97380.78
2022-12-29T01:01:33.748Z,97367.94
2022-12-29T01:04:04.581Z,97368.75
2022-12-29T01:06:35.463Z,97365.53
2022-12-29T01:09:22.012Z,97364.94
2022-12-29T01:11:54.061Z,97358.50
2022-12-29T01:14:24.455Z,97359.91
2022-12-29T01:16:54.770Z,97350.50
2022-12-29T01:19:25.268Z,97358.53
2022-12-29T01:21:55.448Z,97359.91
2022-12-29T01:24:25.301Z,97346.50
2022-12-29T01:26:57.043Z,97346.28
2022-12-29T01:29:26.998Z,97346.09
2022-12-29T01:31:57.014Z,97351.09
2022-12-29T01:34:27.373Z,97345.88
2022-12-29T01:36:57.505Z,97346.28
2022-12-29T01:39:27.319Z,97334.66
2022-12-29T01:41:59.412Z,97332.25
2022-12-29T01:44:55.077Z,97334.66
2022-12-29T01:47:36.743Z,97332.03
2022-12-29T01:50:13.249Z,97326.22
2022-12-29T01:52:51.959Z,97326.03
2022-12-29T01:55:21.743Z,97319.22
2022-12-29T01:57:57.877Z,97329.66
2022-12-29T02:00:28.683Z,97327.44
2022-12-29T02:02:58.833Z,97320.00
2022-12-29T02:05:36.131Z,97321.00
2022-12-29T02:08:06.102Z,97321.41
2022-12-29T02:10:38.412Z,97324.63
2022-12-29T02:13:08.295Z,97317.19
2022-12-29T02:15:51.914Z,97311.97
2022-12-29T02:18:39.833Z,97309.75
2022-12-29T02:21:53.768Z,97326.03
2022-12-29T02:25:17.994Z,97304.53
2022-12-29T02:27:59.835Z,97310.78
2022-12-29T02:30:56.247Z,97300.94
2022-12-29T02:33:59.310Z,97295.72
2022-12-29T02:36:42.425Z,97296.53
2022-12-29T02:39:24.474Z,97280.66
2022-12-29T02:42:06.087Z,97292.72
2022-12-29T02:44:52.787Z,97291.91
2022-12-29T02:47:37.149Z,97289.50
2022-12-29T02:50:16.350Z,97274.84
2022-12-29T02:52:55.658Z,97281.06
2022-12-29T02:55:23.110Z,97277.25
2022-12-29T02:58:17.936Z,97282.66
2022-12-29T03:01:06.442Z,97288.50
2022-12-29T03:04:01.797Z,97286.09
2022-12-29T03:06:53.233Z,97270.63
2022-12-29T03:09:36.897Z,97272.84
2022-12-29T03:12:26.035Z,97279.47
2022-12-29T03:15:24.870Z,97279.25
2022-12-29T03:18:07.076Z,97270.03
2022-12-29T03:20:48.456Z,97264.78
2022-12-29T03:23:20.307Z,97260.19
2022-12-29T03:25:56.415Z,97271.63
2022-12-29T03:28:32.004Z,97269.03
2022-12-29T03:31:02.673Z,97266.41
2022-12-29T03:33:35.156Z,97261.59
2022-12-29T03:36:12.056Z,97270.03
2022-12-29T03:38:47.429Z,97253.53
2022-12-29T03:41:24.013Z,97252.38
2022-12-29T03:43:55.274Z,97235.69
2022-12-29T03:46:24.938Z,97258.19
2022-12-29T03:48:56.325Z,97252.16
2022-12-29T03:51:26.539Z,97250.94
2022-12-29T03:53:57.044Z,97251.16
2022-12-29T03:56:26.531Z,97250.53
2022-12-29T03:58:56.901Z,97256.16
2022-12-29T04:01:26.385Z,97246.94
2022-12-29T04:03:56.431Z,97259.56
2022-12-29T04:06:28.867Z,97257.59
2022-12-29T04:08:58.913Z,97256.97
2022-12-29T04:11:32.999Z,97249.53
2022-12-29T04:14:03.261Z,97248.72
2022-12-29T04:16:32.797Z,97249.53
2022-12-29T04:19:04.051Z,97246.94
2022-12-29T04:21:34.569Z,97254.16
2022-12-29T04:24:03.030Z,97247.16
2022-12-29T04:26:32.411Z,97250.34
2022-12-29T04:29:03.591Z,97242.69
2022-12-29T04:31:33.086Z,97239.50
2022-12-29T04:34:02.678Z,97236.31
2022-12-29T04:36:32.294Z,97244.72
2022-12-29T04:39:02.658Z,97239.09
2022-12-29T04:41:32.888Z,97241.13
2022-12-29T04:44:03.356Z,97235.09
2022-12-29T04:46:33.341Z,97229.06
2022-12-29T04:49:09.759Z,97234.06
2022-12-29T04:51:39.907Z,97238.69
2022-12-29T04:54:10.329Z,97247.34
2022-12-29T04:56:39.773Z,97237.28
2022-12-29T04:59:08.734Z,97235.09
2022-12-29T05:01:39.450Z,97242.72
2022-12-29T05:04:10.142Z,97234.47
2022-12-29T05:06:40.683Z,97227.25
2022-12-29T05:09:11.438Z,97232.66
2022-12-29T05:11:41.466Z,97230.28
2022-12-29T05:14:10.937Z,97243.50
2022-12-29T05:16:41.478Z,97225.88
2022-12-29T05:19:11.623Z,97228.47
2022-12-29T05:21:41.001Z,97222.22
2022-12-29T05:24:11.802Z,97214.38
2022-12-29T05:26:40.774Z,97234.28
2022-12-29T05:29:10.278Z,97237.88
2022-12-29T05:31:38.923Z,97223.25
2022-12-29T05:34:08.419Z,97229.66
2022-12-29T05:36:38.453Z,97231.66
2022-12-29T05:39:09.218Z,97226.84
2022-12-29T05:41:39.964Z,97232.06
2022-12-29T05:44:09.915Z,97218.22
2022-12-29T05:46:40.925Z,97233.88
2022-12-29T05:49:11.238Z,97224.44
2022-12-29T05:51:42.115Z,97233.06
2022-12-29T05:54:10.619Z,97225.44
2022-12-29T05:56:40.401Z,97237.47
2022-12-29T05:59:09.603Z,97238.91
2022-12-29T06:01:38.640Z,97230.69
2022-12-29T06:04:08.713Z,97227.84
2022-12-29T06:06:37.557Z,97230.44
2022-12-29T06:09:08.029Z,97242.69
2022-12-29T06:11:37.548Z,97247.34
2022-12-29T06:14:07.829Z,97240.50
2022-12-29T06:16:37.772Z,97248.31
2022-12-29T06:19:07.242Z,97246.53
2022-12-29T06:21:36.173Z,97252.56
2022-12-29T06:24:06.280Z,97251.56
2022-12-29T06:26:35.428Z,97246.13
2022-12-29T06:29:05.501Z,97245.31
2022-12-29T06:31:37.283Z,97259.97
2022-12-29T06:34:08.777Z,97263.59
2022-12-29T06:36:39.847Z,97256.97
2022-12-29T06:39:09.779Z,97262.00
2022-12-29T06:41:39.895Z,97248.56
2022-12-29T06:44:10.027Z,97252.75
2022-12-29T06:46:41.822Z,97255.16
2022-12-29T06:49:13.055Z,97257.56
2022-12-29T06:51:42.767Z,97256.78
2022-12-29T06:54:13.644Z,97255.34
2022-12-29T06:56:44.264Z,97259.59
2022-12-29T06:59:15.868Z,97259.59
2022-12-29T07:01:47.535Z,97267.81
2022-12-29T07:04:18.049Z,97263.19
2022-12-29T07:06:48.361Z,97261.38
2022-12-29T07:09:18.343Z,97271.63
2022-12-29T07:11:48.471Z,97288.88
2022-12-29T07:14:18.565Z,97278.25
2022-12-29T07:16:50.297Z,97292.31
2022-12-29T07:19:20.877Z,97276.84
2022-12-29T07:21:51.036Z,97280.88
2022-12-29T07:24:21.596Z,97281.06
2022-12-29T07:26:53.635Z,97292.91
2022-12-29T07:29:24.903Z,97294.09
2022-12-29T07:31:57.194Z,97297.34
2022-12-29T07:34:27.446Z,97298.50
2022-12-29T07:36:56.461Z,97291.09
2022-12-29T07:39:27.062Z,97304.34
2022-12-29T07:42:04.339Z,97300.13
2022-12-29T07:44:35.132Z,97299.72
2022-12-29T07:47:07.455Z,97300.75
2022-12-29T07:49:37.339Z,97297.75
2022-12-29T07:52:07.261Z,97302.34
2022-12-29T07:54:37.475Z,97303.97
2022-12-29T07:57:08.079Z,97307.97
2022-12-29T07:59:38.219Z,97307.38
2022-12-29T08:02:11.693Z,97307.16
2022-12-29T08:04:42.839Z,97309.97
2022-12-29T08:07:17.815Z,97325.06
2022-12-29T08:09:48.073Z,97328.66
2022-12-29T08:12:17.258Z,97327.84
2022-12-29T08:14:46.090Z,97335.88
2022-12-29T08:17:18.036Z,97338.47
2022-12-29T08:19:47.543Z,97340.72
2022-12-29T08:22:17.953Z,97347.53
2022-12-29T08:24:49.290Z,97344.31
2022-12-29T08:27:22.355Z,97354.38
2022-12-29T08:29:53.446Z,97364.00
2022-12-29T08:32:24.623Z,97368.00
2022-12-29T08:34:54.255Z,97353.38
2022-12-29T08:37:31.119Z,97351.75
2022-12-29T08:40:05.501Z,97354.78
2022-12-29T08:42:34.830Z,97362.03
2022-12-29T08:45:05.420Z,97359.19
2022-12-29T08:47:35.704Z,97355.59
2022-12-29T08:50:04.939Z,97353.97
2022-12-29T08:52:34.252Z,97374.03
2022-12-29T08:55:04.090Z,97367.59
2022-12-29T08:57:33.630Z,97372.06
2022-12-29T09:00:03.971Z,97379.88
2022-12-29T09:02:34.406Z,97397.94
2022-12-29T09:05:04.311Z,97408.97
2022-12-29T09:07:34.224Z,97392.88
2022-12-29T09:10:03.256Z,97382.44
2022-12-29T09:12:36.669Z,97384.44
2022-12-29T09:15:08.794Z,97389.66
2022-12-29T09:17:48.319Z,97383.06
2022-12-29T09:20:20.137Z,97386.44
2022-12-29T09:22:50.387Z,97376.78
2022-12-29T09:25:19.690Z,97378.22
2022-12-29T09:27:49.485Z,97375.63
2022-12-29T09:30:18.630Z,97383.81
2022-12-29T09:32:53.396Z,97392.28
2022-12-29T09:35:24.655Z,97389.69
2022-12-29T09:37:54.244Z,97389.03
2022-12-29T09:40:31.256Z,97404.53
2022-12-29T09:43:34.606Z,97409.34
2022-12-29T09:46:23.284Z,97408.94
2022-12-29T09:49:07.474Z,97391.06
2022-12-29T09:51:42.152Z,97393.28
2022-12-29T09:54:42.259Z,97407.16
2022-12-29T09:57:25.697Z,97409.38
2022-12-29T10:00:02.508Z,97423.44
2022-12-29T10:02:41.396Z,97421.03
2022-12-29T10:05:32.534Z,97419.81
2022-12-29T10:08:25.471Z,97415.41
2022-12-29T10:11:00.068Z,97421.44
2022-12-29T10:13:45.811Z,97417.84
2022-12-29T10:16:22.755Z,97416.63
2022-12-29T10:19:19.786Z,97423.63
2022-12-29T10:22:11.782Z,97411.22
2022-12-29T10:24:42.855Z,97421.84
2022-12-29T10:27:16.799Z,97418.03
2022-12-29T10:29:53.219Z,97420.25
2022-12-29T10:32:34.526Z,97421.69
2022-12-29T10:35:14.479Z,97433.13
2022-12-29T10:37:56.698Z,97425.69
2022-12-29T10:40:35.371Z,97439.16
2022-12-29T10:43:24.050Z,97427.31
2022-12-29T10:45:56.905Z,97449.84
2022-12-29T10:48:32.548Z,97431.16
2022-12-29T10:51:06.584Z,97440.56
2022-12-29T10:53:47.942Z,97430.75
2022-12-29T10:56:30.102Z,97436.97
2022-12-29T10:59:08.391Z,97442.03
2022-12-29T11:01:51.260Z,97430.94
2022-12-29T11:04:42.551Z,97424.75
2022-12-29T11:07:16.376Z,97431.38
2022-12-29T11:09:49.353Z,97423.19
2022-12-29T11:12:27.694Z,97423.78
2022-12-29T11:15:17.034Z,97426.97
2022-12-29T11:17:50.877Z,97430.81
2022-12-29T11:20:35.297Z,97428.19
2022-12-29T11:23:06.861Z,97431.03
2022-12-29T11:25:37.101Z,97432.81
2022-12-29T11:28:18.909Z,97433.22
2022-12-29T11:31:02.514Z,97433.22
2022-12-29T11:33:31.653Z,97438.84
2022-12-29T11:36:06.808Z,97438.06
2022-12-29T11:38:41.839Z,97442.28
2022-12-29T11:41:21.495Z,97450.53
2022-12-29T11:43:52.413Z,97451.31
2022-12-29T11:46:26.280Z,97435.63
2022-12-29T11:48:59.921Z,97442.47
2022-12-29T11:51:37.476Z,97448.31
2022-12-29T11:54:08.420Z,97444.09
2022-12-29T11:56:43.545Z,97434.44
2022-12-29T11:59:43.692Z,97440.47
2022-12-29T12:02:44.556Z,97448.91
2022-12-29T12:05:29.359Z,97440.47
2022-12-29T12:08:08.428Z,97434.22
2022-12-29T12:10:46.527Z,97429.63
2022-12-29T12:13:27.776Z,97425.56
2022-12-29T12:16:06.808Z,97425.78
2022-12-29T12:18:48.409Z,97420.34
2022-12-29T12:21:46.429Z,97420.56
2022-12-29T12:24:41.643Z,97432.41
2022-12-29T12:27:23.569Z,97417.53
2022-12-29T12:30:04.029Z,97406.69
2022-12-29T12:32:48.676Z,97407.28
2022-12-29T12:35:29.912Z,97412.13
2022-12-29T12:38:30.327Z,97415.34
2022-12-29T12:41:18.099Z,97413.13
2022-12-29T12:43:57.695Z,97406.50
2022-12-29T12:47:28.973Z,97415.91
2022-12-29T12:50:29.300Z,97403.88
2022-12-29T12:53:41.839Z,97411.50
2022-12-29T12:56:40.478Z,97403.47
2022-12-29T12:59:25.378Z,97412.31
2022-12-29T13:02:11.054Z,97413.53
2022-12-29T13:05:27.410Z,97421.16
2022-12-29T13:08:32.207Z,97416.13
2022-12-29T13:11:13.225Z,97403.66
2022-12-29T13:14:23.774Z,97399.03
2022-12-29T13:17:02.589Z,97396.63
2022-12-29T13:19:42.066Z,97402.06
2022-12-29T13:22:24.240Z,97400.63
2022-12-29T13:25:21.739Z,97400.25
2022-12-29T13:28:03.324Z,97403.06
2022-12-29T13:30:43.110Z,97400.44
2022-12-29T13:33:26.146Z,97405.50
2022-12-29T13:36:05.254Z,97394.63
2022-12-29T13:38:43.918Z,97400.25
2022-12-29T13:41:21.815Z,97410.69
2022-12-29T13:43:53.404Z,97420.38
2022-12-29T13:46:32.305Z,97419.75
2022-12-29T13:49:08.019Z,97416.56
2022-12-29T13:51:44.059Z,97418.34
2022-12-29T13:54:32.251Z,97421.38
2022-12-29T13:57:13.062Z,97411.50
2022-12-29T13:59:52.936Z,97416.56
2022-12-29T14:02:41.353Z,97409.31
2022-12-29T14:05:32.919Z,97413.31
2022-12-29T14:08:05.780Z,97405.88
2022-12-29T14:10:47.984Z,97419.94
2022-12-29T14:13:20.815Z,97421.56
2022-12-29T14:15:56.624Z,97421.97
2022-12-29T14:18:29.291Z,97413.91
2022-12-29T14:21:01.876Z,97412.31
2022-12-29T14:23:41.416Z,97413.50
2022-12-29T14:26:20.217Z,97420.34
2022-12-29T14:28:50.701Z,97412.88
2022-12-29T14:31:42.653Z,97431.56
2022-12-29T14:34:33.495Z,97447.63
2022-12-29T14:37:05.192Z,97451.66
2022-12-29T14:39:41.856Z,97453.03
2022-12-29T14:42:23.654Z,97456.47
2022-12-29T14:44:58.083Z,97440.56
2022-12-29T14:47:36.747Z,97446.41
2022-12-29T14:50:16.340Z,97441.34
2022-12-29T14:52:55.303Z,97445.38
2022-12-29T14:55:42.813Z,97465.44
2022-12-29T14:58:23.859Z,97457.00
2022-12-29T15:00:53.531Z,97454.16
2022-12-29T15:03:27.236Z,97462.78
2022-12-29T15:06:00.235Z,97467.63
2022-12-29T15:08:39.732Z,97476.84
2022-12-29T15:11:18.355Z,97480.47
2022-12-29T15:13:49.989Z,97480.88
2022-12-29T15:16:28.986Z,97493.28
2022-12-29T15:18:58.484Z,97493.28
2022-12-29T15:21:33.010Z,97499.09
2022-12-29T15:24:02.639Z,97500.50
2022-12-29T15:26:42.310Z,97503.09
2022-12-29T15:29:35.728Z,97501.66
2022-12-29T15:32:20.402Z,97517.94
2022-12-29T15:34:53.574Z,97511.25
2022-12-29T15:37:26.271Z,97510.66
2022-12-29T15:39:58.603Z,97505.41
2022-12-29T15:42:52.941Z,97509.22
2022-12-29T15:45:36.523Z,97518.81
2022-12-29T15:48:13.161Z,97516.59
2022-12-29T15:50:45.926Z,97520.56
2022-12-29T15:53:22.158Z,97516.34
2022-12-29T15:55:51.722Z,97530.38
2022-12-29T15:58:26.000Z,97531.19
2022-12-29T16:00:59.408Z,97523.13
2022-12-29T16:03:33.819Z,97528.72
2022-12-29T16:06:13.387Z,97542.38
2022-12-29T16:08:44.094Z,97544.34
2022-12-29T16:11:28.044Z,97545.56
2022-12-29T16:13:59.212Z,97563.19
2022-12-29T16:16:36.119Z,97567.59
2022-12-29T16:19:15.833Z,97570.41
2022-12-29T16:21:46.030Z,97567.78
2022-12-29T16:24:20.902Z,97571.75
2022-12-29T16:26:53.907Z,97567.56
2022-12-29T16:29:23.927Z,97562.13
2022-12-29T16:32:04.381Z,97562.53
2022-12-29T16:34:36.606Z,97575.13
2022-12-29T16:37:27.073Z,97567.69
2022-12-29T16:39:57.509Z,97572.66
2022-12-29T16:42:51.925Z,97576.00
2022-12-29T16:46:20.482Z,97591.41
2022-12-29T16:48:56.730Z,97586.94
2022-12-29T16:51:33.191Z,97587.50
2022-12-29T16:54:04.082Z,97594.50
2022-12-29T16:56:39.785Z,97598.25
2022-12-29T16:59:39.451Z,97602.81
2022-12-29T17:02:17.848Z,97605.19
2022-12-29T17:04:50.670Z,97597.09
2022-12-29T17:07:23.252Z,97597.03
2022-12-29T17:09:54.224Z,97586.16
2022-12-29T17:12:28.674Z,97588.16
2022-12-29T17:15:01.681Z,97582.13
2022-12-29T17:17:37.582Z,97582.47
2022-12-29T17:20:18.212Z,97579.59
2022-12-29T17:22:48.199Z,97586.00
2022-12-29T17:25:20.274Z,97581.97
2022-12-29T17:27:55.413Z,97572.69
2022-12-29T17:30:33.152Z,97576.13
2022-12-29T17:33:09.509Z,97583.03
2022-12-29T17:35:39.538Z,97588.91
2022-12-29T17:38:20.933Z,97581.25
2022-12-29T17:40:51.113Z,97573.88
2022-12-29T17:43:21.772Z,97579.91
2022-12-29T17:45:57.731Z,97580.72
2022-12-29T17:48:27.664Z,97589.34
2022-12-29T17:51:00.655Z,97588.69
2022-12-29T17:53:32.305Z,97588.91
2022-12-29T17:56:01.973Z,97594.28
2022-12-29T17:58:32.861Z,97601.47
2022-12-29T18:01:05.619Z,97607.81
2022-12-29T18:03:38.433Z,97609.16
2022-12-29T18:06:13.947Z,97611.34
2022-12-29T18:08:44.633Z,97606.31
2022-12-29T18:11:26.863Z,97611.69
2022-12-29T18:13:56.278Z,97611.44
2022-12-29T18:16:26.141Z,97620.59
2022-12-29T18:18:55.201Z,97625.53
2022-12-29T18:21:26.618Z,97622.75
2022-12-29T18:23:55.074Z,97619.34
2022-12-29T18:26:28.897Z,97616.38
2022-12-29T18:28:58.745Z,97617.47
2022-12-29T18:31:30.686Z,97618.28
2022-12-29T18:34:03.979Z,97616.66
2022-12-29T18:36:35.751Z,97616.81
2022-12-29T18:39:05.095Z,97612.63
2022-12-29T18:41:36.082Z,97624.00
2022-12-29T18:44:05.764Z,97624.44
2022-12-29T18:46:34.408Z,97622.31
2022-12-29T18:49:04.111Z,97620.69
2022-12-29T18:51:35.018Z,97629.13
2022-12-29T18:54:04.667Z,97631.72
2022-12-29T18:56:34.309Z,97632.34
2022-12-29T18:59:03.607Z,97632.00
2022-12-29T19:01:32.814Z,97637.84
2022-12-29T19:04:03.046Z,97640.06
2022-12-29T19:06:31.518Z,97636.91
2022-12-29T19:09:02.119Z,97648.59
2022-12-29T19:11:32.944Z,97653.44
2022-12-29T19:14:02.048Z,97658.31
2022-12-29T19:16:31.639Z,97662.94
2022-12-29T19:19:09.221Z,97660.78
2022-12-29T19:21:39.833Z,97658.03
2022-12-29T19:24:11.495Z,97655.22
2022-12-29T19:26:42.458Z,97647.25
2022-12-29T19:29:16.700Z,97651.09
2022-12-29T19:31:46.229Z,97658.19
2022-12-29T19:34:17.085Z,97654.59
2022-12-29T19:36:47.762Z,97661.22
2022-12-29T19:39:17.545Z,97654.88
2022-12-29T19:41:46.544Z,97655.50
2022-12-29T19:44:15.771Z,97664.75
2022-12-29T19:46:45.720Z,97669.16
2022-12-29T19:49:15.640Z,97658.38
2022-12-29T19:51:45.008Z,97660.97
2022-12-29T19:54:14.590Z,97657.22
2022-12-29T19:56:46.004Z,97669.06
2022-12-29T19:59:14.774Z,97668.06
2022-12-29T20:01:45.004Z,97674.06
2022-12-29T20:04:14.750Z,97669.06
2022-12-29T20:06:44.213Z,97676.88
2022-12-29T20:09:14.326Z,97680.47
2022-12-29T20:11:44.624Z,97675.44
2022-12-29T20:14:13.124Z,97676.00
2022-12-29T20:17:09.087Z,97680.56
2022-12-29T20:19:32.113Z,97680.91
2022-12-29T20:22:01.871Z,97678.19
2022-12-29T20:24:32.205Z,97690.16
2022-12-29T20:27:05.745Z,97699.31
2022-12-29T20:29:39.549Z,97708.13
2022-12-29T20:32:10.165Z,97709.13
2022-12-29T20:34:41.103Z,97714.66
2022-12-29T20:37:10.454Z,97717.81
2022-12-29T20:39:41.864Z,97720.34
2022-12-29T20:42:12.628Z,97729.13
2022-12-29T20:44:41.053Z,97725.72
2022-12-29T20:47:10.151Z,97723.72
2022-12-29T20:49:39.547Z,97724.19
2022-12-29T20:52:09.171Z,97735.06
2022-12-29T20:54:39.930Z,97731.44
2022-12-29T20:57:10.008Z,97737.47
2022-12-29T20:59:40.655Z,97738.63
2022-12-29T21:02:22.374Z,97730.19
2022-12-29T21:07:43.480Z,97727.75
2022-12-29T21:10:12.717Z,97729.38
2022-12-29T21:12:41.677Z,97724.53
2022-12-29T21:15:15.027Z,97728.94
2022-12-29T21:17:45.020Z,97722.09
2022-12-29T21:20:30.409Z,97716.28
2022-12-29T21:23:01.692Z,97728.94
2022-12-29T21:25:37.563Z,97731.53
2022-12-29T21:28:08.984Z,97743.53
2022-12-29T21:30:40.480Z,97738.19
2022-12-29T21:33:10.273Z,97740.78
2022-12-29T21:35:40.119Z,97738.19
2022-12-29T21:38:10.848Z,97739.97
2022-12-29T21:40:41.468Z,97738.34
2022-12-29T21:43:13.565Z,97744.56
2022-12-29T21:45:44.024Z,97747.31
2022-12-29T21:48:24.214Z,97764.56
2022-12-29T21:51:14.117Z,97771.56
2022-12-29T21:53:45.463Z,97762.59
2022-12-29T21:56:17.729Z,97767.97
2022-12-29T21:59:07.801Z,97769.41
2022-12-29T22:01:57.204Z,97772.81
2022-12-29T22:04:45.019Z,97774.00
2022-12-29T22:07:32.563Z,97778.56
2022-12-29T22:10:19.348Z,97788.16
2022-12-29T22:13:02.405Z,97788.88
2022-12-29T22:15:33.765Z,97793.44
2022-12-29T22:18:07.015Z,97790.19
2022-12-29T22:20:39.093Z,97795.91
2022-12-29T22:23:09.020Z,97800.66
2022-12-29T22:25:41.210Z,97802.81
2022-12-29T22:28:11.098Z,97801.19
2022-12-29T22:30:41.816Z,97806.91
2022-12-29T22:33:12.309Z,97808.06
2022-12-29T22:35:40.896Z,97807.25
2022-12-29T22:38:10.981Z,97809.56
2022-12-29T22:40:39.918Z,97820.97
2022-12-29T22:43:13.060Z,97813.84
2022-12-29T22:45:42.827Z,97821.00
2022-12-29T22:48:14.409Z,97828.19
2022-12-29T22:50:44.503Z,97828.84
2022-12-29T22:53:14.162Z,97837.66
2022-12-29T22:55:44.053Z,97839.59
2022-12-29T22:58:13.538Z,97845.34
2022-12-29T23:00:42.513Z,97850.06
2022-12-29T23:03:13.391Z,97855.28
2022-12-29T23:05:43.114Z,97863.13
2022-12-29T23:08:13.124Z,97859.22
2022-12-29T23:10:42.714Z,97856.84
2022-12-29T23:13:13.337Z,97859.63
2022-12-29T23:15:43.851Z,97863.88
2022-12-29T23:18:14.535Z,97857.06
2022-12-29T23:20:44.320Z,97866.16
2022-12-29T23:23:14.832Z,97865.53
2022-12-29T23:25:45.384Z,97858.88
2022-12-29T23:28:15.594Z,97867.81
2022-12-29T23:30:45.323Z,97868.63
2022-12-29T23:33:17.378Z,97861.16
2022-12-29T23:35:47.382Z,97855.16
2022-12-29T23:38:16.628Z,97855.69
2022-12-29T23:40:46.171Z,97855.69
2022-12-29T23:43:16.974Z,97853.41
2022-12-29T23:45:50.802Z,97845.94
2022-12-29T23:48:22.352Z,97849.84
2022-12-29T23:50:52.530Z,97857.66
2022-12-29T23:53:22.569Z,97860.91
2022-12-29T23:55:57.987Z,97859.09
2022-12-29T23:58:27.262Z,97868.56
